createdAt,value
2019-06-10T00:02:50.679Z,9.60
2019-06-10T00:05:55.907Z,10.93
2019-06-10T00:09:04.591Z,10.13
2019-06-10T00:12:12.727Z,9.90
2019-06-10T00:15:18.357Z,10.20
2019-06-10T00:18:38.759Z,9.73
2019-06-10T00:21:32.428Z,9.70
2019-06-10T00:24:40.747Z,9.80
2019-06-10T00:27:45.540Z,8.90
2019-06-10T00:30:51.689Z,9.10
2019-06-10T00:33:58.637Z,9.80
2019-06-10T00:37:06.284Z,9.03
2019-06-10T00:40:14.100Z,9.40
2019-06-10T00:43:21.388Z,9.03
2019-06-10T00:46:27.321Z,8.70
2019-06-10T00:49:33.081Z,8.93
2019-06-10T00:52:41.460Z,9.10
2019-06-10T00:55:46.167Z,8.50
2019-06-10T00:58:51.850Z,9.27
2019-06-10T01:01:57.529Z,9.23
2019-06-10T01:05:03.220Z,8.97
2019-06-10T01:08:08.862Z,9.13
2019-06-10T01:11:21.567Z,8.97
2019-06-10T01:14:21.940Z,8.83
2019-06-10T01:17:27.642Z,8.70
2019-06-10T01:20:33.361Z,8.43
2019-06-10T01:23:39.009Z,9.40
2019-06-10T01:26:46.408Z,9.40
2019-06-10T01:29:52.141Z,8.60
2019-06-10T01:32:57.827Z,9.30
2019-06-10T01:36:03.536Z,8.37
2019-06-10T01:39:11.594Z,8.47
2019-06-10T01:42:17.202Z,8.20
2019-06-10T01:45:23.099Z,7.37
2019-06-10T01:48:41.460Z,8.17
2019-06-10T01:51:36.186Z,7.13
2019-06-10T01:54:42.140Z,7.37
2019-06-10T01:57:48.888Z,6.90
2019-06-10T02:01:02.126Z,7.20
2019-06-10T02:04:11.583Z,7.47
2019-06-10T02:07:18.476Z,7.80
2019-06-10T02:10:23.583Z,7.40
2019-06-10T02:13:33.242Z,6.73
2019-06-10T02:16:41.308Z,7.33
2019-06-10T02:19:46.531Z,7.53
2019-06-10T02:22:52.176Z,7.50
2019-06-10T02:25:57.861Z,7.00
2019-06-10T02:29:03.586Z,7.23
2019-06-10T02:32:12.440Z,6.70
2019-06-10T02:35:27.226Z,7.13
2019-06-10T02:38:33.204Z,6.90
2019-06-10T02:41:36.063Z,6.63
2019-06-10T02:44:40.378Z,7.30
2019-06-10T02:47:46.072Z,6.80
2019-06-10T02:51:06.185Z,7.10
2019-06-10T02:54:15.584Z,6.90
2019-06-10T02:57:24.627Z,6.90
2019-06-10T03:00:39.558Z,6.80
2019-06-10T03:03:42.929Z,7.13
2019-06-10T03:06:44.817Z,6.53
2019-06-10T03:09:49.452Z,6.97
2019-06-10T03:12:55.149Z,6.50
2019-06-10T03:16:16.218Z,7.20
2019-06-10T03:19:39.766Z,6.53
2019-06-10T03:22:29.254Z,6.60
2019-06-10T03:25:34.996Z,6.23
2019-06-10T03:28:42.790Z,6.70
2019-06-10T03:31:48.739Z,5.87
2019-06-10T03:34:55.128Z,6.73
2019-06-10T03:38:02.993Z,5.80
2019-06-10T03:41:08.401Z,5.97
2019-06-10T03:44:14.071Z,6.03
2019-06-10T03:47:19.726Z,6.27
2019-06-10T03:50:27.121Z,5.70
2019-06-10T03:53:33.604Z,5.40
2019-06-10T03:56:39.638Z,6.13
2019-06-10T03:59:45.414Z,6.93
2019-06-10T04:02:53.118Z,6.50
2019-06-10T04:05:58.496Z,6.23
2019-06-10T04:09:05.425Z,6.23
2019-06-10T04:12:12.570Z,6.87
2019-06-10T04:15:19.691Z,6.57
2019-06-10T04:18:27.870Z,6.60
2019-06-10T04:21:33.161Z,6.70
2019-06-10T04:24:38.809Z,6.27
2019-06-10T04:27:44.618Z,6.43
2019-06-10T04:30:50.337Z,6.50
2019-06-10T04:33:56.006Z,7.20
2019-06-10T04:37:03.135Z,7.00
2019-06-10T04:40:09.732Z,7.10
2019-06-10T04:43:15.387Z,7.10
2019-06-10T04:46:23.662Z,7.20
2019-06-10T04:49:29.779Z,7.63
2019-06-10T04:52:36.033Z,6.83
2019-06-10T04:55:43.139Z,6.90
2019-06-10T04:58:49.074Z,7.17
2019-06-10T05:01:54.778Z,8.10
2019-06-10T05:05:02.964Z,8.67
2019-06-10T05:08:07.817Z,8.93
2019-06-10T05:11:13.516Z,7.53
2019-06-10T05:14:19.406Z,7.27
2019-06-10T05:17:27.570Z,7.33
2019-06-10T05:20:51.084Z,6.90
2019-06-10T05:23:42.757Z,7.70
2019-06-10T05:26:48.004Z,6.43
2019-06-10T05:29:53.744Z,7.00
2019-06-10T05:32:59.410Z,6.50
2019-06-10T05:36:06.593Z,7.63
2019-06-10T05:39:12.314Z,6.63
2019-06-10T05:42:18.015Z,6.37
2019-06-10T05:45:25.839Z,6.47
2019-06-10T05:48:33.053Z,6.20
2019-06-10T05:51:42.313Z,6.20
2019-06-10T05:54:48.314Z,5.80
2019-06-10T05:57:53.980Z,6.40
2019-06-10T06:00:59.670Z,6.63
2019-06-10T06:04:05.438Z,6.83
2019-06-10T06:07:12.893Z,6.53
2019-06-10T06:10:18.774Z,7.30
2019-06-10T06:13:25.367Z,6.80
2019-06-10T06:16:33.110Z,6.63
2019-06-10T06:19:38.950Z,7.03
2019-06-10T06:22:44.559Z,6.83
2019-06-10T06:25:52.964Z,6.27
2019-06-10T06:28:57.754Z,7.00
2019-06-10T06:32:05.516Z,7.27
2019-06-10T06:35:12.788Z,7.27
2019-06-10T06:38:18.448Z,7.37
2019-06-10T06:41:24.217Z,6.37
2019-06-10T06:44:32.464Z,6.43
2019-06-10T06:47:37.756Z,6.37
2019-06-10T06:51:00.252Z,6.37
2019-06-10T06:53:56.241Z,5.70
2019-06-10T06:57:03.238Z,5.80
2019-06-10T07:00:34.243Z,6.10
2019-06-10T07:03:15.601Z,6.93
2019-06-10T07:06:23.046Z,6.47
2019-06-10T07:09:33.079Z,6.37
2019-06-10T07:12:39.487Z,6.60
2019-06-10T07:15:47.639Z,5.73
2019-06-10T07:18:54.136Z,6.27
2019-06-10T07:22:11.419Z,6.67
2019-06-10T07:25:08.022Z,5.50
2019-06-10T07:28:14.752Z,5.73
2019-06-10T07:31:26.783Z,6.23
2019-06-10T07:34:27.873Z,5.73
2019-06-10T07:37:34.984Z,5.83
2019-06-10T07:40:45.277Z,5.47
2019-06-10T07:43:49.775Z,5.67
2019-06-10T07:46:55.666Z,5.40
2019-06-10T07:50:03.010Z,5.03
2019-06-10T07:53:09.926Z,5.90
2019-06-10T07:56:15.559Z,5.40
2019-06-10T07:59:23.308Z,5.20
2019-06-10T08:02:28.600Z,5.07
2019-06-10T08:05:35.631Z,5.83
2019-06-10T08:08:44.833Z,4.97
2019-06-10T08:11:49.198Z,4.60
2019-06-10T08:14:54.876Z,4.23
2019-06-10T08:18:04.123Z,4.50
2019-06-10T08:21:08.024Z,4.00
2019-06-10T08:24:13.672Z,4.33
2019-06-10T08:27:19.446Z,4.20
2019-06-10T08:30:27.558Z,4.77
2019-06-10T08:33:33.222Z,4.23
2019-06-10T08:36:50.423Z,4.40
2019-06-10T08:39:53.869Z,4.07
2019-06-10T08:43:00.620Z,4.00
2019-06-10T08:46:06.612Z,3.87
2019-06-10T08:49:12.722Z,4.80
2019-06-10T08:52:19.560Z,4.60
2019-06-10T08:55:25.364Z,4.17
2019-06-10T08:58:33.057Z,3.90
2019-06-10T09:01:39.478Z,3.80
2019-06-10T09:04:48.746Z,3.77
2019-06-10T09:07:54.487Z,4.27
2019-06-10T09:11:02.392Z,4.20
2019-06-10T09:14:07.892Z,4.17
2019-06-10T09:17:13.570Z,3.67
2019-06-10T09:20:22.792Z,3.77
2019-06-10T09:23:27.394Z,4.20
2019-06-10T09:26:33.891Z,4.47
2019-06-10T09:29:41.720Z,4.00
2019-06-10T09:32:51.488Z,3.90
2019-06-10T09:35:55.290Z,4.20
2019-06-10T09:39:03.759Z,3.77
2019-06-10T09:42:08.851Z,3.60
2019-06-10T09:45:15.480Z,3.70
2019-06-10T09:48:23.118Z,4.13
2019-06-10T09:51:32.236Z,4.07
2019-06-10T09:54:37.437Z,4.63
2019-06-10T09:57:45.985Z,4.43
2019-06-10T10:00:57.561Z,4.03
2019-06-10T10:04:00.775Z,4.03
2019-06-10T10:07:06.529Z,4.13
2019-06-10T10:10:13.449Z,4.10
2019-06-10T10:13:19.080Z,4.35
2019-06-10T10:16:24.770Z,3.90
2019-06-10T10:19:30.548Z,3.87
2019-06-10T10:22:36.243Z,3.52
2019-06-10T10:25:44.895Z,3.10
2019-06-10T10:28:51.835Z,3.17
2019-06-10T10:31:56.794Z,2.98
2019-06-10T10:35:03.942Z,2.75
2019-06-10T10:38:14.343Z,2.98
2019-06-10T10:41:27.561Z,2.70
2019-06-10T10:44:33.274Z,2.58
2019-06-10T10:47:39.034Z,2.67
2019-06-10T10:50:45.640Z,1.98
2019-06-10T10:54:15.582Z,2.33
2019-06-10T10:56:59.426Z,1.90
2019-06-10T11:00:06.798Z,2.05
2019-06-10T11:03:13.433Z,2.30
2019-06-10T11:06:19.454Z,2.62
2019-06-10T11:09:26.455Z,2.70
2019-06-10T11:12:34.098Z,2.47
2019-06-10T11:15:39.987Z,2.60
2019-06-10T11:18:45.687Z,2.22
2019-06-10T11:21:53.635Z,2.30
2019-06-10T11:24:59.607Z,2.42
2019-06-10T11:28:06.470Z,2.62
2019-06-10T11:31:13.782Z,2.83
2019-06-10T11:34:19.988Z,3.47
2019-06-10T11:37:25.701Z,2.80
2019-06-10T11:40:33.932Z,3.02
2019-06-10T11:43:39.455Z,2.98
2019-06-10T11:46:46.644Z,2.90
2019-06-10T11:49:54.975Z,3.42
2019-06-10T11:53:01.375Z,2.90
2019-06-10T11:56:07.516Z,2.83
2019-06-10T11:59:13.548Z,2.70
2019-06-10T12:02:19.511Z,2.80
2019-06-10T12:05:25.803Z,3.75
2019-06-10T12:08:34.235Z,3.40
2019-06-10T12:11:42.897Z,3.37
2019-06-10T12:14:47.323Z,3.30
2019-06-10T12:18:01.804Z,4.97
2019-06-10T12:21:03.577Z,4.80
2019-06-10T12:24:07.859Z,4.83
2019-06-10T12:27:13.584Z,4.78
2019-06-10T12:30:22.236Z,4.33
2019-06-10T12:33:27.446Z,5.28
2019-06-10T12:36:33.126Z,5.13
2019-06-10T12:39:39.075Z,4.77
2019-06-10T12:42:45.929Z,5.37
2019-06-10T12:45:53.014Z,4.77
2019-06-10T12:49:02.084Z,4.03
2019-06-10T12:52:07.580Z,4.13
2019-06-10T12:55:13.975Z,4.80
2019-06-10T12:58:19.653Z,5.10
2019-06-10T13:01:26.695Z,3.30
2019-06-10T13:04:33.765Z,2.80
2019-06-10T13:07:39.716Z,2.50
2019-06-10T13:10:46.745Z,2.63
2019-06-10T13:13:53.041Z,2.90
2019-06-10T13:17:00.004Z,2.80
2019-06-10T13:20:08.237Z,2.27
2019-06-10T13:23:23.303Z,2.67
2019-06-10T13:26:23.444Z,3.07
2019-06-10T13:29:29.252Z,3.30
2019-06-10T13:32:35.088Z,3.47
2019-06-10T13:35:41.754Z,3.90
2019-06-10T13:38:48.275Z,3.53
2019-06-10T13:41:54.229Z,3.93
2019-06-10T13:45:00.007Z,3.87
2019-06-10T13:48:08.402Z,3.60
2019-06-10T13:51:15.750Z,3.83
2019-06-10T13:54:22.573Z,4.13
2019-06-10T13:57:32.226Z,3.60
2019-06-10T14:00:42.694Z,3.50
2019-06-10T14:03:45.417Z,3.73
2019-06-10T14:06:56.860Z,4.00
2019-06-10T14:09:59.062Z,3.80
2019-06-10T14:13:08.772Z,3.70
2019-06-10T14:16:15.182Z,3.70
2019-06-10T14:19:23.062Z,4.20
2019-06-10T14:22:28.301Z,3.40
2019-06-10T14:25:34.012Z,3.77
2019-06-10T14:28:41.789Z,4.07
2019-06-10T14:31:48.035Z,3.57
2019-06-10T14:34:54.554Z,3.60
2019-06-10T14:38:00.210Z,3.50
2019-06-10T14:41:06.574Z,3.73
2019-06-10T14:44:16.064Z,4.00
2019-06-10T14:47:19.842Z,4.00
2019-06-10T14:50:25.637Z,3.80
2019-06-10T14:53:33.736Z,3.93
2019-06-10T14:56:50.772Z,4.60
2019-06-10T14:59:46.067Z,4.07
2019-06-10T15:02:53.781Z,3.90
2019-06-10T15:05:59.188Z,3.70
2019-06-10T15:09:07.432Z,3.67
2019-06-10T15:12:15.556Z,4.00
2019-06-10T15:15:23.377Z,4.30
2019-06-10T15:18:28.334Z,3.33
2019-06-10T15:21:33.973Z,3.90
2019-06-10T15:24:39.663Z,4.43
2019-06-10T15:27:45.386Z,3.50
2019-06-10T15:30:52.454Z,3.67
2019-06-10T15:33:58.476Z,3.70
2019-06-10T15:37:04.256Z,3.60
2019-06-10T15:40:14.023Z,3.97
2019-06-10T15:43:18.130Z,3.87
2019-06-10T15:46:23.938Z,3.80
2019-06-10T15:49:32.600Z,4.20
2019-06-10T15:52:38.822Z,4.03
2019-06-10T15:56:09.116Z,4.23
2019-06-10T15:58:52.214Z,4.37
2019-06-10T16:01:58.531Z,4.37
2019-06-10T16:05:04.450Z,4.10
2019-06-10T16:08:12.532Z,4.20
2019-06-10T16:11:18.898Z,4.30
2019-06-10T16:14:25.443Z,4.33
2019-06-10T16:17:33.214Z,4.20
2019-06-10T16:20:38.674Z,3.30
2019-06-10T16:23:44.347Z,4.30
2019-06-10T16:26:52.436Z,4.17
2019-06-10T16:29:57.397Z,4.20
2019-06-10T16:33:03.033Z,5.03
2019-06-10T16:36:08.755Z,4.25
2019-06-10T16:39:14.923Z,3.75
2019-06-10T16:42:22.977Z,4.10
2019-06-10T16:45:30.928Z,4.20
2019-06-10T16:48:35.440Z,4.20
2019-06-10T16:51:42.917Z,4.10
2019-06-10T16:54:48.462Z,3.80
2019-06-10T16:57:59.206Z,3.80
2019-06-10T17:01:03.485Z,3.93
2019-06-10T17:04:08.941Z,4.20
2019-06-10T17:07:14.602Z,4.10
2019-06-10T17:10:21.764Z,4.20
2019-06-10T17:13:30.317Z,4.60
2019-06-10T17:16:36.097Z,4.43
2019-06-10T17:19:41.791Z,4.13
2019-06-10T17:22:47.502Z,4.67
2019-06-10T17:25:55.802Z,4.00
2019-06-10T17:29:02.816Z,4.07
2019-06-10T17:32:08.612Z,4.53
2019-06-10T17:35:20.080Z,4.40
2019-06-10T17:38:26.891Z,4.43
2019-06-10T17:41:35.260Z,4.90
2019-06-10T17:44:42.724Z,4.43
2019-06-10T17:47:48.640Z,4.30
2019-06-10T17:50:54.462Z,5.00
2019-06-10T17:54:02.475Z,5.30
2019-06-10T17:57:08.247Z,5.50
2019-06-10T18:00:15.103Z,4.77
2019-06-10T18:03:23.161Z,5.50
2019-06-10T18:06:29.586Z,5.67
2019-06-10T18:09:37.061Z,6.07
2019-06-10T18:12:42.992Z,7.90
2019-06-10T18:15:48.697Z,5.77
2019-06-10T18:18:54.420Z,5.63
2019-06-10T18:22:00.220Z,5.20
2019-06-10T18:25:06.172Z,5.23
2019-06-10T18:28:12.200Z,6.37
2019-06-10T18:31:18.757Z,7.70
2019-06-10T18:34:25.686Z,6.87
2019-06-10T18:37:34.462Z,5.13
2019-06-10T18:40:39.871Z,5.10
2019-06-10T18:43:46.295Z,5.77
2019-06-10T18:46:51.975Z,6.00
2019-06-10T18:49:57.654Z,5.40
2019-06-10T18:53:04.335Z,5.87
2019-06-10T18:56:12.668Z,5.80
2019-06-10T18:59:21.257Z,6.40
2019-06-10T19:02:26.434Z,6.40
2019-06-10T19:05:33.528Z,6.30
2019-06-10T19:08:41.379Z,5.23
2019-06-10T19:11:47.744Z,5.00
2019-06-10T19:14:55.354Z,5.60
2019-06-10T19:18:03.175Z,5.00
2019-06-10T19:21:08.926Z,6.20
2019-06-10T19:24:16.866Z,5.70
2019-06-10T19:27:23.704Z,5.17
2019-06-10T19:30:31.864Z,4.90
2019-06-10T19:33:39.269Z,4.73
2019-06-10T19:36:45.846Z,4.70
2019-06-10T19:39:54.090Z,4.67
2019-06-10T19:42:59.098Z,5.27
2019-06-10T19:46:07.240Z,5.13
2019-06-10T19:49:13.452Z,4.77
2019-06-10T19:52:23.329Z,4.90
2019-06-10T19:55:27.982Z,4.83
2019-06-10T19:58:34.203Z,4.60
2019-06-10T20:01:41.892Z,4.90
2019-06-10T20:04:47.273Z,5.53
2019-06-10T20:07:53.455Z,4.60
2019-06-10T20:10:59.713Z,4.67
2019-06-10T20:14:07.365Z,5.53
2019-06-10T20:17:13.536Z,4.40
2019-06-10T20:20:22.312Z,5.13
2019-06-10T20:23:27.297Z,5.30
2019-06-10T20:26:33.164Z,4.87
2019-06-10T20:29:40.487Z,4.60
2019-06-10T20:32:51.852Z,4.90
2019-06-10T20:35:56.191Z,4.50
2019-06-10T20:39:01.874Z,4.80
2019-06-10T20:42:09.086Z,4.90
2019-06-10T20:45:15.009Z,4.60
2019-06-10T20:48:22.474Z,4.23
2019-06-10T20:51:28.078Z,4.83
2019-06-10T20:54:33.746Z,5.07
2019-06-10T20:57:52.114Z,5.30
2019-06-10T21:00:51.865Z,4.63
2019-06-10T21:03:54.443Z,4.67
2019-06-10T21:07:02.490Z,5.23
2019-06-10T21:10:09.881Z,5.40
2019-06-10T21:13:15.724Z,5.03
2019-06-10T21:16:23.008Z,5.17
2019-06-10T21:19:28.726Z,5.43
2019-06-10T21:22:34.447Z,5.70
2019-06-10T21:25:41.205Z,5.47
2019-06-10T21:28:49.229Z,5.20
2019-06-10T21:31:55.211Z,5.20
2019-06-10T21:35:03.105Z,5.27
2019-06-10T21:38:08.437Z,5.60
2019-06-10T21:41:14.102Z,5.70
2019-06-10T21:44:19.794Z,5.43
2019-06-10T21:47:25.491Z,5.57
2019-06-10T21:50:33.433Z,5.90
2019-06-10T21:53:38.642Z,5.50
2019-06-10T21:56:45.643Z,5.40
2019-06-10T21:59:54.984Z,5.47
2019-06-10T22:02:59.103Z,6.20
2019-06-10T22:06:04.870Z,5.90
2019-06-10T22:09:12.460Z,5.83
2019-06-10T22:12:18.520Z,5.70
2019-06-10T22:15:24.328Z,5.70
2019-06-10T22:18:32.208Z,6.27
2019-06-10T22:21:38.118Z,5.97
2019-06-10T22:24:44.694Z,5.93
2019-06-10T22:27:50.353Z,6.03
2019-06-10T22:31:15.131Z,5.80
2019-06-10T22:34:04.532Z,5.90
2019-06-10T22:37:12.373Z,5.77
2019-06-10T22:40:17.973Z,5.93
2019-06-10T22:43:23.765Z,6.13
2019-06-10T22:46:29.431Z,5.60
2019-06-10T22:49:35.122Z,6.37
2019-06-10T22:52:42.582Z,6.47
2019-06-10T22:55:50.902Z,5.67
2019-06-10T22:58:57.465Z,6.00
2019-06-10T23:02:03.210Z,6.13
2019-06-10T23:05:09.363Z,5.97
2019-06-10T23:08:15.043Z,5.93
2019-06-10T23:11:20.729Z,5.13
2019-06-10T23:14:26.388Z,5.83
2019-06-10T23:17:32.099Z,5.90
2019-06-10T23:20:37.801Z,6.47
2019-06-10T23:23:43.487Z,6.40
2019-06-10T23:26:49.725Z,5.63
2019-06-10T23:29:56.008Z,6.13
2019-06-10T23:33:02.978Z,5.37
2019-06-10T23:36:08.666Z,5.40
2019-06-10T23:39:14.356Z,6.07
2019-06-10T23:42:20.016Z,5.93
2019-06-10T23:45:25.726Z,5.47
2019-06-10T23:48:33.004Z,5.47
2019-06-10T23:51:38.763Z,5.33
2019-06-10T23:54:44.457Z,5.77
2019-06-10T23:57:50.111Z,6.00
